createdAt,value
2019-05-29T00:01:39.802Z,99580.11
2019-05-29T00:04:08.145Z,99584.23
2019-05-29T00:06:34.818Z,99581.25
2019-05-29T00:09:02.246Z,99587.06
2019-05-29T00:11:29.726Z,99586.09
2019-05-29T00:13:57.245Z,99589.78
2019-05-29T00:16:24.672Z,99587.19
2019-05-29T00:18:52.117Z,99587.88
2019-05-29T00:21:19.597Z,99589.99
2019-05-29T00:23:47.101Z,99597.88
2019-05-29T00:26:16.618Z,99595.41
2019-05-29T00:28:43.732Z,99604.59
2019-05-29T00:31:12.171Z,99601.14
2019-05-29T00:33:38.755Z,99610.59
2019-05-29T00:36:06.834Z,99607.45
2019-05-29T00:38:34.782Z,99608.47
2019-05-29T00:41:02.230Z,99609.18
2019-05-29T00:43:29.939Z,99619.14
2019-05-29T00:45:57.401Z,99617.80
2019-05-29T00:48:24.897Z,99627.09
2019-05-29T00:50:52.330Z,99621.21
2019-05-29T00:53:19.776Z,99628.11
2019-05-29T00:55:47.290Z,99638.42
2019-05-29T00:58:14.930Z,99632.11
2019-05-29T01:00:42.229Z,99638.78
2019-05-29T01:03:09.663Z,99638.39
2019-05-29T01:05:38.326Z,99641.22
2019-05-29T01:08:05.757Z,99641.45
2019-05-29T01:10:33.218Z,99641.25
2019-05-29T01:13:00.710Z,99647.30
2019-05-29T01:15:28.231Z,99649.02
2019-05-29T01:17:55.669Z,99647.85
2019-05-29T01:20:23.092Z,99653.03
2019-05-29T01:22:50.537Z,99655.73
2019-05-29T01:25:18.809Z,99656.48
2019-05-29T01:27:45.467Z,99656.05
2019-05-29T01:30:13.179Z,99659.70
2019-05-29T01:32:40.424Z,99657.42
2019-05-29T01:35:07.928Z,99667.90
2019-05-29T01:37:35.404Z,99667.58
2019-05-29T01:40:18.724Z,99670.48
2019-05-29T01:42:30.269Z,99673.23
2019-05-29T01:45:07.565Z,99671.62
2019-05-29T01:47:25.237Z,99676.25
2019-05-29T01:49:52.677Z,99678.76
2019-05-29T01:52:20.149Z,99680.17
2019-05-29T01:54:47.594Z,99689.52
2019-05-29T01:57:15.757Z,99686.56
2019-05-29T01:59:42.516Z,99692.21
2019-05-29T02:02:10.015Z,99694.69
2019-05-29T02:04:38.478Z,99694.95
2019-05-29T02:07:05.914Z,99689.66
2019-05-29T02:09:34.166Z,99698.74
2019-05-29T02:12:01.605Z,99696.19
2019-05-29T02:14:29.058Z,99704.23
2019-05-29T02:16:56.629Z,99699.13
2019-05-29T02:19:24.142Z,99706.77
2019-05-29T02:21:51.579Z,99715.16
2019-05-29T02:24:19.104Z,99716.33
2019-05-29T02:26:46.510Z,99718.62
2019-05-29T02:29:13.914Z,99720.16
2019-05-29T02:31:41.389Z,99726.42
2019-05-29T02:34:09.043Z,99724.91
2019-05-29T02:36:36.494Z,99728.02
2019-05-29T02:39:03.945Z,99721.07
2019-05-29T02:41:31.450Z,99730.91
2019-05-29T02:43:58.903Z,99725.55
2019-05-29T02:46:28.119Z,99726.33
2019-05-29T02:48:53.913Z,99728.97
2019-05-29T02:51:22.092Z,99738.11
2019-05-29T02:53:48.852Z,99738.05
2019-05-29T02:56:16.319Z,99743.39
2019-05-29T02:58:43.779Z,99745.76
2019-05-29T03:01:11.284Z,99750.22
2019-05-29T03:03:40.360Z,99748.20
2019-05-29T03:06:07.238Z,99759.09
2019-05-29T03:08:34.764Z,99756.99
2019-05-29T03:11:02.165Z,99754.06
2019-05-29T03:13:30.608Z,99756.45
2019-05-29T03:16:09.625Z,99761.34
2019-05-29T03:18:25.844Z,99759.44
2019-05-29T03:20:52.158Z,99763.61
2019-05-29T03:23:19.629Z,99764.69
2019-05-29T03:25:47.061Z,99767.80
2019-05-29T03:28:15.621Z,99769.94
2019-05-29T03:30:46.229Z,99771.05
2019-05-29T03:33:10.516Z,99772.67
2019-05-29T03:35:46.191Z,99772.66
2019-05-29T03:38:05.425Z,99785.08
2019-05-29T03:40:33.601Z,99789.80
2019-05-29T03:43:00.402Z,99784.03
2019-05-29T03:45:28.937Z,99786.05
2019-05-29T03:47:55.332Z,99780.30
2019-05-29T03:50:22.740Z,99785.59
2019-05-29T03:52:50.210Z,99782.05
2019-05-29T03:55:17.673Z,99781.33
2019-05-29T03:57:45.214Z,99788.23
2019-05-29T04:00:12.650Z,99788.88
2019-05-29T04:02:42.006Z,99789.81
2019-05-29T04:05:09.539Z,99791.38
2019-05-29T04:07:38.150Z,99795.66
2019-05-29T04:10:04.586Z,99798.58
2019-05-29T04:12:33.389Z,99803.58
2019-05-29T04:14:59.506Z,99804.88
2019-05-29T04:17:27.319Z,99806.27
2019-05-29T04:19:54.465Z,99814.12
2019-05-29T04:22:21.905Z,99823.83
2019-05-29T04:24:49.381Z,99829.73
2019-05-29T04:27:18.580Z,99832.48
2019-05-29T04:29:46.160Z,99830.81
2019-05-29T04:32:13.615Z,99832.10
2019-05-29T04:34:41.666Z,99839.38
2019-05-29T04:37:09.087Z,99839.48
2019-05-29T04:39:36.941Z,99842.91
2019-05-29T04:42:04.045Z,99846.00
2019-05-29T04:44:33.401Z,99844.85
2019-05-29T04:47:10.527Z,99849.09
2019-05-29T04:49:26.500Z,99854.78
2019-05-29T04:51:53.927Z,99856.08
2019-05-29T04:54:21.389Z,99862.34
2019-05-29T04:56:48.872Z,99864.83
2019-05-29T04:59:16.292Z,99871.84
2019-05-29T05:01:43.738Z,99871.66
2019-05-29T05:04:12.222Z,99880.20
2019-05-29T05:06:39.680Z,99880.84
2019-05-29T05:09:07.129Z,99883.36
2019-05-29T05:11:35.468Z,99890.27
2019-05-29T05:14:02.011Z,99891.39
2019-05-29T05:16:29.702Z,99894.59
2019-05-29T05:18:56.924Z,99897.26
2019-05-29T05:21:24.358Z,99897.33
2019-05-29T05:23:51.840Z,99897.80
2019-05-29T05:26:19.274Z,99894.56
2019-05-29T05:28:47.119Z,99893.63
2019-05-29T05:31:15.506Z,99893.52
2019-05-29T05:33:43.007Z,99894.53
2019-05-29T05:36:10.445Z,99905.54
2019-05-29T05:38:38.794Z,99906.34
2019-05-29T05:41:05.429Z,99909.00
2019-05-29T05:43:32.953Z,99909.00
2019-05-29T05:46:00.412Z,99919.70
2019-05-29T05:48:27.863Z,99921.81
2019-05-29T05:50:55.348Z,99928.05
2019-05-29T05:53:22.790Z,99927.40
2019-05-29T05:55:50.252Z,99929.27
2019-05-29T05:58:17.663Z,99937.12
2019-05-29T06:00:45.125Z,99941.12
2019-05-29T06:03:13.447Z,99944.64
2019-05-29T06:05:42.191Z,99943.67
2019-05-29T06:08:08.351Z,99944.58
2019-05-29T06:10:36.107Z,99944.69
2019-05-29T06:13:03.298Z,99941.30
2019-05-29T06:15:30.730Z,99946.38
2019-05-29T06:18:17.513Z,99950.66
2019-05-29T06:20:26.845Z,99948.31
2019-05-29T06:22:54.272Z,99950.91
2019-05-29T06:25:21.711Z,99952.53
2019-05-29T06:27:49.124Z,99951.15
2019-05-29T06:30:18.330Z,99959.00
2019-05-29T06:32:45.747Z,99960.62
2019-05-29T06:35:14.038Z,99960.16
2019-05-29T06:37:41.769Z,99969.67
2019-05-29T06:40:08.935Z,99968.44
2019-05-29T06:42:36.623Z,99968.26
2019-05-29T06:45:04.143Z,99978.13
2019-05-29T06:47:31.351Z,99983.56
2019-05-29T06:49:58.785Z,99987.56
2019-05-29T06:52:26.226Z,99984.23
2019-05-29T06:54:53.645Z,99983.56
2019-05-29T06:57:25.613Z,99982.27
2019-05-29T06:59:48.956Z,99987.38
2019-05-29T07:02:16.021Z,99990.05
2019-05-29T07:04:44.398Z,99984.84
2019-05-29T07:07:10.896Z,99983.58
2019-05-29T07:09:38.849Z,99985.59
2019-05-29T07:12:05.828Z,99987.02
2019-05-29T07:14:33.273Z,99988.34
2019-05-29T07:17:00.795Z,99991.84
2019-05-29T07:19:47.150Z,99988.50
2019-05-29T07:21:55.699Z,99988.58
2019-05-29T07:24:23.146Z,99987.58
2019-05-29T07:26:50.576Z,99992.27
2019-05-29T07:29:19.518Z,99998.97
2019-05-29T07:31:47.326Z,99987.66
2019-05-29T07:34:15.010Z,99995.34
2019-05-29T07:36:43.898Z,100001.62
2019-05-29T07:39:09.895Z,99998.50
2019-05-29T07:41:37.488Z,99996.03
2019-05-29T07:44:04.817Z,100007.67
2019-05-29T07:46:32.267Z,100008.70
2019-05-29T07:48:59.749Z,100006.95
2019-05-29T07:51:27.191Z,100008.98
2019-05-29T07:53:54.623Z,100007.38
2019-05-29T07:56:23.326Z,100009.13
2019-05-29T07:59:01.536Z,100012.38
2019-05-29T08:01:17.048Z,100012.02
2019-05-29T08:03:45.402Z,100019.93
2019-05-29T08:06:12.014Z,100010.85
2019-05-29T08:08:39.490Z,100016.86
2019-05-29T08:11:06.949Z,100017.27
2019-05-29T08:13:34.378Z,100026.15
2019-05-29T08:16:03.209Z,100022.64
2019-05-29T08:18:29.361Z,100026.58
2019-05-29T08:20:56.795Z,100030.36
2019-05-29T08:23:24.245Z,100030.83
2019-05-29T08:25:51.895Z,100034.13
2019-05-29T08:28:19.164Z,100028.90
2019-05-29T08:30:51.743Z,100038.77
2019-05-29T08:33:14.041Z,100037.39
2019-05-29T08:35:41.884Z,100039.94
2019-05-29T08:38:08.934Z,100040.37
2019-05-29T08:40:36.394Z,100042.04
2019-05-29T08:43:03.803Z,100042.62
2019-05-29T08:45:31.271Z,100046.72
2019-05-29T08:47:58.693Z,100040.42
2019-05-29T08:50:26.128Z,100045.17
2019-05-29T08:52:53.559Z,100051.41
2019-05-29T08:55:21.018Z,100042.70
2019-05-29T08:57:48.509Z,100046.20
2019-05-29T09:00:16.540Z,100041.08
2019-05-29T09:02:44.672Z,100043.58
2019-05-29T09:05:11.467Z,100045.32
2019-05-29T09:07:38.935Z,100047.70
2019-05-29T09:10:06.362Z,100049.77
2019-05-29T09:12:33.842Z,100048.27
2019-05-29T09:15:01.338Z,100046.91
2019-05-29T09:17:28.767Z,100043.77
2019-05-29T09:19:56.497Z,100045.58
2019-05-29T09:22:23.950Z,100049.38
2019-05-29T09:24:51.397Z,100048.70
2019-05-29T09:27:19.148Z,100037.45
2019-05-29T09:29:46.974Z,100043.94
2019-05-29T09:32:15.401Z,100046.59
2019-05-29T09:34:41.890Z,100047.11
2019-05-29T09:37:09.356Z,100047.86
2019-05-29T09:39:36.786Z,100047.37
2019-05-29T09:42:04.219Z,100049.28
2019-05-29T09:44:38.638Z,100045.05
2019-05-29T09:47:01.071Z,100041.29
2019-05-29T09:49:28.533Z,100044.19
2019-05-29T09:51:56.247Z,100049.20
2019-05-29T09:54:23.562Z,100047.08
2019-05-29T09:56:50.872Z,100044.23
2019-05-29T09:59:18.325Z,100049.52
2019-05-29T10:01:45.760Z,100051.30
2019-05-29T10:04:13.172Z,100054.47
2019-05-29T10:06:40.656Z,100054.73
2019-05-29T10:09:08.093Z,100059.37
2019-05-29T10:11:35.529Z,100060.15
2019-05-29T10:14:04.962Z,100056.57
2019-05-29T10:16:30.451Z,100049.55
2019-05-29T10:18:59.806Z,100051.61
2019-05-29T10:21:38.984Z,100050.55
2019-05-29T10:23:52.876Z,100050.33
2019-05-29T10:26:20.345Z,100055.51
2019-05-29T10:31:02.109Z,100055.16
2019-05-29T10:31:15.300Z,100053.82
2019-05-29T10:33:44.021Z,100051.48
2019-05-29T10:36:10.227Z,100057.11
2019-05-29T10:38:37.657Z,100054.59
2019-05-29T10:41:07.077Z,100052.95
2019-05-29T10:43:34.479Z,100048.16
2019-05-29T10:46:00.035Z,100051.19
2019-05-29T10:48:27.471Z,100053.92
2019-05-29T10:50:55.438Z,100048.16
2019-05-29T10:53:22.386Z,100043.05
2019-05-29T10:55:50.578Z,100049.97
2019-05-29T10:58:17.920Z,100048.72
2019-05-29T11:00:45.914Z,100040.54
2019-05-29T11:03:12.887Z,100045.39
2019-05-29T11:05:40.335Z,100039.98
2019-05-29T11:08:07.770Z,100039.55
2019-05-29T11:10:35.220Z,100043.58
2019-05-29T11:13:02.672Z,100048.20
2019-05-29T11:15:30.115Z,100033.48
2019-05-29T11:17:57.565Z,100042.79
2019-05-29T11:20:25.003Z,100038.58
2019-05-29T11:22:53.574Z,100037.28
2019-05-29T11:25:23.525Z,100031.79
2019-05-29T11:27:48.490Z,100037.84
2019-05-29T11:30:15.522Z,100039.20
2019-05-29T11:32:46.723Z,100035.56
2019-05-29T11:35:10.448Z,100034.77
2019-05-29T11:37:37.895Z,100030.23
2019-05-29T11:40:05.352Z,100030.98
2019-05-29T11:42:34.280Z,100029.88
2019-05-29T11:45:01.859Z,100029.78
2019-05-29T11:47:29.319Z,100029.56
2019-05-29T11:50:03.243Z,100023.31
2019-05-29T11:52:26.531Z,100030.81
2019-05-29T11:54:55.951Z,100024.75
2019-05-29T11:57:19.561Z,100027.09
2019-05-29T11:59:47.030Z,100025.98
2019-05-29T12:02:14.469Z,100021.36
2019-05-29T12:04:41.919Z,100030.06
2019-05-29T12:07:09.374Z,100025.78
2019-05-29T12:09:37.055Z,100024.48
2019-05-29T12:12:04.363Z,100017.19
2019-05-29T12:14:31.807Z,100017.94
2019-05-29T12:17:00.446Z,100016.44
2019-05-29T12:19:26.751Z,100010.31
2019-05-29T12:21:54.458Z,100011.59
2019-05-29T12:24:21.671Z,100013.60
2019-05-29T12:26:49.103Z,100012.14
2019-05-29T12:29:16.569Z,100005.39
2019-05-29T12:31:43.997Z,100008.45
2019-05-29T12:34:18.696Z,100002.56
2019-05-29T12:36:38.918Z,100011.40
2019-05-29T12:39:06.337Z,100002.13
2019-05-29T12:41:33.779Z,100005.05
2019-05-29T12:44:01.611Z,99997.31
2019-05-29T12:46:28.732Z,99996.09
2019-05-29T12:48:57.445Z,100005.05
2019-05-29T12:51:23.599Z,100001.12
2019-05-29T12:53:51.052Z,100003.94
2019-05-29T12:56:18.479Z,100010.22
2019-05-29T12:58:45.939Z,100000.37
2019-05-29T13:01:13.376Z,100009.66
2019-05-29T13:03:44.825Z,100000.36
2019-05-29T13:06:08.300Z,99997.68
2019-05-29T13:08:35.728Z,99999.02
2019-05-29T13:11:03.181Z,99996.69
2019-05-29T13:13:30.603Z,99991.95
2019-05-29T13:15:58.773Z,99992.08
2019-05-29T13:18:25.499Z,99988.03
2019-05-29T13:20:52.932Z,99989.98
2019-05-29T13:23:21.222Z,99988.36
2019-05-29T13:25:48.661Z,99988.59
2019-05-29T13:28:16.275Z,99988.44
2019-05-29T13:30:43.701Z,99983.17
2019-05-29T13:33:11.155Z,99990.23
2019-05-29T13:35:38.585Z,99981.86
2019-05-29T13:38:07.243Z,99986.41
2019-05-29T13:40:33.447Z,99982.20
2019-05-29T13:43:07.028Z,99981.72
2019-05-29T13:45:28.413Z,99976.84
2019-05-29T13:47:56.822Z,99970.78
2019-05-29T13:50:23.295Z,99971.56
2019-05-29T13:52:51.815Z,99970.03
2019-05-29T13:55:20.190Z,99963.75
2019-05-29T13:57:47.729Z,99967.16
2019-05-29T14:00:32.606Z,99962.07
2019-05-29T14:02:42.617Z,99958.56
2019-05-29T14:05:10.076Z,99961.20
2019-05-29T14:07:37.597Z,99962.98
2019-05-29T14:10:06.436Z,99962.98
2019-05-29T14:12:32.539Z,99972.27
2019-05-29T14:14:59.987Z,99963.37
2019-05-29T14:17:27.418Z,99967.80
2019-05-29T14:19:54.890Z,99966.78
2019-05-29T14:22:22.539Z,99964.81
2019-05-29T14:24:49.990Z,99963.32
2019-05-29T14:27:17.596Z,99969.73
2019-05-29T14:29:45.085Z,99964.37
2019-05-29T14:32:13.441Z,99968.04
2019-05-29T14:34:40.030Z,99961.15
2019-05-29T14:37:07.969Z,99965.92
2019-05-29T14:39:34.978Z,99959.14
2019-05-29T14:42:04.195Z,99955.69
2019-05-29T14:44:29.941Z,99959.98
2019-05-29T14:46:57.374Z,99951.03
2019-05-29T14:49:26.951Z,99950.00
2019-05-29T14:51:52.990Z,99953.30
2019-05-29T14:54:20.432Z,99951.53
2019-05-29T14:56:47.923Z,99951.03
2019-05-29T14:59:15.364Z,99954.50
2019-05-29T15:01:42.818Z,99956.41
2019-05-29T15:04:14.154Z,99957.60
2019-05-29T15:06:38.818Z,99957.27
2019-05-29T15:09:06.262Z,99958.86
2019-05-29T15:11:33.692Z,99965.19
2019-05-29T15:14:01.138Z,99962.34
2019-05-29T15:16:28.565Z,99967.12
2019-05-29T15:18:55.999Z,99963.83
2019-05-29T15:21:23.622Z,99964.52
2019-05-29T15:23:51.060Z,99967.89
2019-05-29T15:26:18.615Z,99968.49
2019-05-29T15:28:46.062Z,99967.29
2019-05-29T15:31:14.651Z,99965.23
2019-05-29T15:33:40.977Z,99964.64
2019-05-29T15:36:08.672Z,99963.06
2019-05-29T15:38:36.904Z,99963.60
2019-05-29T15:41:04.345Z,99964.16
2019-05-29T15:43:31.799Z,99970.49
2019-05-29T15:45:59.253Z,99973.92
2019-05-29T15:48:26.669Z,99967.41
2019-05-29T15:50:54.157Z,99968.16
2019-05-29T15:53:21.603Z,99970.00
2019-05-29T15:55:49.047Z,99962.43
2019-05-29T15:58:18.030Z,99967.77
2019-05-29T16:00:43.953Z,99973.08
2019-05-29T16:03:11.541Z,99969.64
2019-05-29T16:05:38.862Z,99965.54
2019-05-29T16:08:06.319Z,99964.73
2019-05-29T16:10:33.745Z,99961.77
2019-05-29T16:13:01.560Z,99965.71
2019-05-29T16:15:29.105Z,99957.30
2019-05-29T16:17:56.551Z,99961.63
2019-05-29T16:20:24.724Z,99960.76
2019-05-29T16:22:52.190Z,99952.34
2019-05-29T16:25:35.491Z,99954.66
2019-05-29T16:27:47.118Z,99945.01
2019-05-29T16:30:15.571Z,99947.45
2019-05-29T16:32:42.442Z,99948.59
2019-05-29T16:35:10.952Z,99951.72
2019-05-29T16:37:37.417Z,99957.00
2019-05-29T16:40:06.287Z,99953.58
2019-05-29T16:42:33.717Z,99954.32
2019-05-29T16:45:01.170Z,99948.00
2019-05-29T16:47:28.589Z,99949.55
2019-05-29T16:49:56.029Z,99955.04
2019-05-29T16:52:23.462Z,99953.32
2019-05-29T16:54:50.941Z,99950.20
2019-05-29T16:57:19.244Z,99951.27
2019-05-29T16:59:47.468Z,99952.73
2019-05-29T17:02:15.624Z,99948.36
2019-05-29T17:04:42.441Z,99956.60
2019-05-29T17:07:09.853Z,99947.41
2019-05-29T17:09:37.301Z,99948.05
2019-05-29T17:12:04.725Z,99956.05
2019-05-29T17:14:32.167Z,99961.41
2019-05-29T17:16:59.590Z,99947.30
2019-05-29T17:19:27.010Z,99956.95
2019-05-29T17:21:55.205Z,99949.58
2019-05-29T17:24:22.995Z,99955.09
2019-05-29T17:26:50.082Z,99953.41
2019-05-29T17:29:18.562Z,99953.83
2019-05-29T17:31:44.991Z,99952.47
2019-05-29T17:34:12.458Z,99958.13
2019-05-29T17:36:39.904Z,99955.98
2019-05-29T17:39:07.418Z,99954.09
2019-05-29T17:41:34.856Z,99954.43
2019-05-29T17:44:02.314Z,99957.92
2019-05-29T17:46:29.765Z,99955.76
2019-05-29T17:48:57.217Z,99961.45
2019-05-29T17:51:25.950Z,99959.02
2019-05-29T17:53:52.104Z,99960.19
2019-05-29T17:56:29.626Z,99961.11
2019-05-29T17:58:46.996Z,99966.28
2019-05-29T18:01:14.425Z,99969.76
2019-05-29T18:03:41.877Z,99969.92
2019-05-29T18:06:09.343Z,99966.58
2019-05-29T18:08:36.761Z,99965.98
2019-05-29T18:11:04.193Z,99966.67
2019-05-29T18:13:31.653Z,99963.58
2019-05-29T18:15:59.106Z,99966.34
2019-05-29T18:18:27.816Z,99966.61
2019-05-29T18:20:54.211Z,99967.59
2019-05-29T18:23:21.710Z,99969.66
2019-05-29T18:25:49.106Z,99975.19
2019-05-29T18:28:17.680Z,99977.06
2019-05-29T18:30:44.029Z,99979.79
2019-05-29T18:33:11.482Z,99968.89
2019-05-29T18:35:38.930Z,99968.23
2019-05-29T18:38:06.365Z,99977.00
2019-05-29T18:40:33.807Z,99974.12
2019-05-29T18:43:01.243Z,99979.68
2019-05-29T18:45:29.456Z,99978.95
2019-05-29T18:47:56.137Z,99974.56
2019-05-29T18:50:23.638Z,99975.88
2019-05-29T18:52:51.237Z,99977.59
2019-05-29T18:55:18.630Z,99981.44
2019-05-29T18:57:46.050Z,99973.16
2019-05-29T19:00:13.488Z,99969.89
2019-05-29T19:02:40.933Z,99977.50
2019-05-29T19:05:08.379Z,99976.70
2019-05-29T19:07:35.812Z,99979.73
2019-05-29T19:10:06.478Z,99976.50
2019-05-29T19:12:31.999Z,99983.28
2019-05-29T19:14:58.153Z,99980.70
2019-05-29T19:17:26.015Z,99976.80
2019-05-29T19:19:53.044Z,99982.88
2019-05-29T19:22:20.479Z,99985.13
2019-05-29T19:24:47.897Z,99989.70
2019-05-29T19:27:30.206Z,99994.56
2019-05-29T19:29:43.756Z,99998.08
2019-05-29T19:32:11.249Z,99999.46
2019-05-29T19:34:38.710Z,100002.39
2019-05-29T19:37:06.138Z,99999.98
2019-05-29T19:39:34.159Z,100006.54
2019-05-29T19:42:01.800Z,100003.14
2019-05-29T19:44:30.402Z,100009.17
2019-05-29T19:46:56.816Z,100013.97
2019-05-29T19:49:25.524Z,100018.84
2019-05-29T19:51:51.867Z,100022.53
2019-05-29T19:54:19.454Z,100017.50
2019-05-29T19:56:46.902Z,100015.26
2019-05-29T19:59:14.324Z,100024.12
2019-05-29T20:01:41.777Z,100027.36
2019-05-29T20:04:09.213Z,100024.66
2019-05-29T20:06:37.247Z,100022.52
2019-05-29T20:09:04.150Z,100030.77
2019-05-29T20:11:31.658Z,100031.71
2019-05-29T20:13:59.111Z,100037.11
2019-05-29T20:16:27.918Z,100029.25
2019-05-29T20:18:54.059Z,100035.09
2019-05-29T20:21:21.530Z,100027.25
2019-05-29T20:23:48.972Z,100035.67
2019-05-29T20:26:16.407Z,100039.04
2019-05-29T20:28:44.032Z,100034.02
2019-05-29T20:31:12.224Z,100036.84
2019-05-29T20:33:39.427Z,100036.25
2019-05-29T20:36:07.285Z,100036.83
2019-05-29T20:38:35.414Z,100038.45
2019-05-29T20:41:03.060Z,100034.41
2019-05-29T20:43:31.503Z,100036.77
2019-05-29T20:45:58.636Z,100038.47
2019-05-29T20:48:26.486Z,100032.50
2019-05-29T20:50:54.175Z,100032.41
2019-05-29T20:53:21.888Z,100041.39
2019-05-29T20:55:49.397Z,100038.89
2019-05-29T20:58:24.695Z,100037.78
2019-05-29T21:00:44.306Z,100041.99
2019-05-29T21:03:11.744Z,100038.25
2019-05-29T21:05:39.199Z,100034.06
2019-05-29T21:08:06.660Z,100037.33
2019-05-29T21:10:35.097Z,100035.27
2019-05-29T21:13:01.584Z,100041.92
2019-05-29T21:15:28.995Z,100044.01
2019-05-29T21:17:56.439Z,100040.36
2019-05-29T21:20:23.873Z,100048.64
2019-05-29T21:22:51.322Z,100041.67
2019-05-29T21:25:19.504Z,100042.12
2019-05-29T21:27:49.212Z,100043.25
2019-05-29T21:30:13.695Z,100048.33
2019-05-29T21:32:41.917Z,100042.58
2019-05-29T21:35:08.782Z,100048.73
2019-05-29T21:37:36.405Z,100045.76
2019-05-29T21:40:05.648Z,100046.56
2019-05-29T21:42:33.341Z,100044.70
2019-05-29T21:45:01.198Z,100049.73
2019-05-29T21:47:28.955Z,100049.88
2019-05-29T21:49:56.597Z,100041.16
2019-05-29T21:52:24.276Z,100042.27
2019-05-29T21:54:51.992Z,100039.23
2019-05-29T21:57:19.635Z,100041.69
2019-05-29T21:59:48.133Z,100041.77
2019-05-29T22:02:16.181Z,100041.08
2019-05-29T22:04:44.561Z,100040.56
2019-05-29T22:07:11.766Z,100045.76
2019-05-29T22:09:39.503Z,100044.70
2019-05-29T22:12:07.369Z,100046.95
2019-05-29T22:14:34.979Z,100046.04
2019-05-29T22:17:02.869Z,100044.13
2019-05-29T22:19:31.706Z,100037.33
2019-05-29T22:21:59.596Z,100039.28
2019-05-29T22:24:27.260Z,100040.80
2019-05-29T22:26:55.248Z,100038.07
2019-05-29T22:29:22.543Z,100036.86
2019-05-29T22:31:51.341Z,100037.69
2019-05-29T22:34:18.090Z,100036.78
2019-05-29T22:36:46.722Z,100034.91
2019-05-29T22:39:14.401Z,100028.69
2019-05-29T22:41:41.892Z,100035.30
2019-05-29T22:44:09.310Z,100033.14
2019-05-29T22:46:36.766Z,100027.08
2019-05-29T22:49:05.140Z,100022.33
2019-05-29T22:51:32.662Z,100023.45
2019-05-29T22:54:00.125Z,100023.78
2019-05-29T22:56:27.602Z,100022.20
2019-05-29T22:58:56.032Z,100026.52
2019-05-29T23:03:56.068Z,100027.84
2019-05-29T23:06:22.794Z,100031.20
2019-05-29T23:08:50.246Z,100018.73
2019-05-29T23:11:17.672Z,100023.44
2019-05-29T23:13:45.124Z,100029.31
2019-05-29T23:16:12.550Z,100012.66
2019-05-29T23:18:40.009Z,100012.44
2019-05-29T23:21:07.436Z,100018.80
2019-05-29T23:23:34.872Z,100021.39
2019-05-29T23:26:02.961Z,100013.95
2019-05-29T23:28:30.899Z,100018.45
2019-05-29T23:30:58.821Z,100016.22
2019-05-29T23:33:25.892Z,100011.34
2019-05-29T23:35:53.311Z,100019.34
2019-05-29T23:38:20.751Z,100017.58
2019-05-29T23:40:48.218Z,100009.03
2019-05-29T23:43:15.666Z,100009.97
2019-05-29T23:45:43.114Z,100011.56
2019-05-29T23:48:10.548Z,100001.42
2019-05-29T23:50:37.979Z,100003.59
2019-05-29T23:53:05.412Z,100004.98
2019-05-29T23:55:33.251Z,99998.72
2019-05-29T23:58:01.978Z,99999.81
